Time;durP1;ratioP1;P1;durP2;ratioP2;P2;SDS_P1;SDS_P2;PMS_P1;PMS_P2;Temp;Humidity;BMP_temperature;BMP_pressure;BME280_temperature;BME280_humidity;BME280_pressure;Samples;Min_cycle;Max_cycle;Signal;HPM_P1;HPM_P2
2023/03/01 00:01:45;;;;;;;13.45;9.38;;;;;;;1.86;60.13;101242.47;5066728;28;20078;-77
2023/03/01 00:04:10;;;;;;;17.17;9.48;;;;;;;1.86;59.50;101247.00;5070729;28;20036;-78
2023/03/01 00:06:35;;;;;;;18.67;10.70;;;;;;;1.76;60.10;101241.81;5068921;28;20607;-78
2023/03/01 00:09:00;;;;;;;15.48;9.18;;;;;;;1.73;59.78;101240.28;5066063;28;20039;-77
2023/03/01 00:11:31;;;;;;;17.67;9.95;;;;;;;1.68;59.99;101239.13;5067216;28;20028;-77
2023/03/01 00:14:00;;;;;;;16.15;10.68;;;;;;;1.72;60.38;101244.00;5065939;28;20021;-77
2023/03/01 00:16:33;;;;;;;14.55;11.23;;;;;;;1.71;59.63;101238.81;5066347;28;20058;-77
2023/03/01 00:18:58;;;;;;;13.10;8.82;;;;;;;1.70;60.03;101223.66;5059362;28;20043;-76
2023/03/01 00:21:26;;;;;;;20.55;12.30;;;;;;;1.61;60.17;101229.03;5069483;28;20033;-77
2023/03/01 00:23:51;;;;;;;15.77;9.70;;;;;;;1.63;60.23;101227.03;5066827;28;20033;-77
2023/03/01 00:26:19;;;;;;;18.05;10.63;;;;;;;1.66;60.54;101228.56;5062480;28;20548;-78
2023/03/01 00:28:44;;;;;;;15.55;11.25;;;;;;;1.66;60.44;101220.47;5067299;28;20511;-77
2023/03/01 00:31:15;;;;;;;16.80;9.95;;;;;;;1.76;60.04;101217.63;5068467;28;20030;-76
2023/03/01 00:33:41;;;;;;;19.77;11.73;;;;;;;1.73;59.55;101216.09;5064806;28;20080;-78
2023/03/01 00:36:08;;;;;;;20.27;11.93;;;;;;;1.72;59.94;101218.97;5062705;28;20026;-78
2023/03/01 00:38:41;;;;;;;21.42;10.60;;;;;;;1.62;60.26;101220.00;5062235;28;20543;-78
2023/03/01 00:41:14;;;;;;;14.63;9.52;;;;;;;1.59;60.31;101220.31;5066103;28;20112;-78
2023/03/01 00:43:39;;;;;;;17.40;11.25;;;;;;;1.57;60.49;101218.78;5058178;28;20380;-77
2023/03/01 00:46:07;;;;;;;21.95;11.43;;;;;;;1.44;60.29;101217.47;5065469;28;20178;-77
2023/03/01 00:48:33;;;;;;;18.23;11.13;;;;;;;1.47;60.55;101211.75;5056885;28;20041;-77
2023/03/01 00:51:15;;;;;;;22.35;11.80;;;;;;;1.58;60.77;101209.72;5063666;28;20078;-76
2023/03/01 00:53:41;;;;;;;19.52;11.35;;;;;;;1.50;60.60;101195.28;5067847;28;20020;-77
2023/03/01 00:56:08;;;;;;;19.80;11.90;;;;;;;1.57;60.38;101197.28;5066401;28;20540;-77
2023/03/01 00:58:34;;;;;;;20.05;11.65;;;;;;;1.48;60.57;101201.84;5063881;28;20062;-77
2023/03/01 01:01:00;;;;;;;18.73;10.40;;;;;;;1.37;60.17;101194.94;5072157;27;20045;-77
2023/03/01 01:03:26;;;;;;;19.27;11.93;;;;;;;1.31;60.47;101201.00;5069037;28;20128;-77
2023/03/01 01:05:52;;;;;;;20.02;10.25;;;;;;;1.27;60.51;101195.97;5068732;28;20021;-77
2023/03/01 01:08:18;;;;;;;20.48;12.25;;;;;;;1.25;60.49;101199.81;5066549;28;20062;-77
2023/03/01 01:10:44;;;;;;;17.65;10.82;;;;;;;1.15;61.20;101192.78;5070374;28;20035;-76
2023/03/01 01:13:10;;;;;;;17.17;10.57;;;;;;;1.15;61.21;101192.78;5068236;28;20537;-76
2023/03/01 01:15:36;;;;;;;20.05;11.25;;;;;;;1.09;61.01;101188.06;5069398;28;20039;-77
2023/03/01 01:18:02;;;;;;;22.52;11.85;;;;;;;1.06;60.91;101187.56;5067003;28;20462;-77
2023/03/01 01:20:27;;;;;;;17.08;12.02;;;;;;;1.02;61.34;101174.44;5067321;28;20035;-77
2023/03/01 01:22:52;;;;;;;23.90;12.27;;;;;;;1.06;61.30;101182.19;5071218;28;20426;-77
2023/03/01 01:25:18;;;;;;;16.77;9.60;;;;;;;0.96;61.26;101180.47;5069890;28;20607;-77
2023/03/01 01:27:44;;;;;;;18.00;11.82;;;;;;;0.94;61.61;101171.75;5067633;27;20027;-77
2023/03/01 01:30:10;;;;;;;19.88;12.13;;;;;;;0.92;61.76;101171.91;5069882;28;20041;-77
2023/03/01 01:32:35;;;;;;;17.58;10.20;;;;;;;0.95;61.36;101181.50;5069898;28;20371;-77
2023/03/01 01:35:00;;;;;;;23.50;11.83;;;;;;;0.93;61.30;101173.63;5068498;28;20080;-77
2023/03/01 01:37:30;;;;;;;16.55;11.30;;;;;;;0.96;61.52;101171.56;5066814;28;20620;-76
2023/03/01 01:39:57;;;;;;;18.05;12.05;;;;;;;0.97;61.85;101157.16;5067588;28;20280;-77
2023/03/01 01:42:23;;;;;;;16.05;10.35;;;;;;;0.89;61.11;101168.72;5065587;28;20060;-77
2023/03/01 01:45:08;;;;;;;16.40;10.52;;;;;;;0.97;61.76;101171.44;5068651;28;20476;-78
2023/03/01 01:47:33;;;;;;;15.20;10.85;;;;;;;0.88;61.44;101178.63;5063745;28;20085;-77
2023/03/01 01:49:58;;;;;;;15.03;9.80;;;;;;;0.97;61.71;101163.38;5067270;28;20037;-78
2023/03/01 01:52:31;;;;;;;16.67;10.60;;;;;;;1.10;60.92;101170.91;5068005;28;20291;-77
2023/03/01 01:55:02;;;;;;;14.52;9.70;;;;;;;1.01;61.13;101159.34;5065501;28;20259;-78
2023/03/01 01:57:40;;;;;;;19.23;11.65;;;;;;;1.04;61.61;101164.38;5068690;28;20057;-77
2023/03/01 02:00:18;;;;;;;20.48;10.80;;;;;;;1.08;61.31;101177.50;5065886;28;20027;-77
2023/03/01 02:02:48;;;;;;;23.70;11.27;;;;;;;1.12;61.39;101168.09;5067680;28;20053;-78
2023/03/01 02:05:49;;;;;;;18.50;11.88;;;;;;;1.01;61.19;101156.66;5069970;28;20464;-78
2023/03/01 02:08:18;;;;;;;18.45;11.85;;;;;;;0.90;61.40;101144.38;5049334;28;20039;-77
2023/03/01 02:10:45;;;;;;;18.52;10.15;;;;;;;0.95;62.06;101143.91;5067076;28;20042;-77
2023/03/01 02:13:11;;;;;;;13.82;9.50;;;;;;;0.93;61.74;101146.75;5068128;28;20114;-77
2023/03/01 02:15:39;;;;;;;18.38;9.82;;;;;;;0.87;61.65;101138.50;5066665;28;20403;-77
2023/03/01 02:18:09;;;;;;;22.58;12.38;;;;;;;0.92;61.33;101145.06;5065176;28;20082;-77
2023/03/01 02:21:03;;;;;;;22.95;10.38;;;;;;;0.86;61.32;101148.41;5063387;28;20394;-77
2023/03/01 02:23:29;;;;;;;14.90;9.82;;;;;;;0.87;61.10;101141.19;5065749;28;20055;-77
2023/03/01 02:26:07;;;;;;;18.05;10.55;;;;;;;0.89;61.25;101149.94;5066784;28;20036;-77
2023/03/01 02:28:35;;;;;;;18.25;11.65;;;;;;;0.88;61.45;101140.19;5064508;28;20031;-78
2023/03/01 02:33:47;;;;;;;16.52;10.88;;;;;;;0.88;61.00;101141.03;5066742;28;20042;-77
2023/03/01 02:36:18;;;;;;;22.02;11.20;;;;;;;0.87;61.30;101142.03;5068343;28;20738;-77
2023/03/01 02:38:44;;;;;;;19.60;11.65;;;;;;;0.81;61.70;101143.53;5066916;28;20060;-76
2023/03/01 02:41:14;;;;;;;18.58;10.63;;;;;;;0.72;61.55;101147.22;5066582;28;20073;-77
2023/03/01 02:43:40;;;;;;;21.20;12.30;;;;;;;0.71;61.81;101148.22;5065474;28;20431;-77
2023/03/01 02:46:13;;;;;;;20.42;11.15;;;;;;;0.70;62.13;101146.53;5068034;28;20024;-78
2023/03/01 02:48:47;;;;;;;16.08;11.13;;;;;;;0.65;61.69;101146.22;5062808;28;20039;-77
2023/03/01 02:51:27;;;;;;;23.75;11.43;;;;;;;0.69;61.39;101150.25;5067377;28;20587;-77
2023/03/01 02:54:23;;;;;;;19.80;11.50;;;;;;;0.67;61.78;101138.81;5067478;28;20560;-77
2023/03/01 02:56:49;;;;;;;22.17;11.77;;;;;;;0.65;62.12;101143.53;5062052;28;20120;-77
2023/03/01 02:59:17;;;;;;;25.25;12.00;;;;;;;0.71;62.03;101137.50;5065271;28;20130;-77
2023/03/01 03:01:43;;;;;;;19.80;11.27;;;;;;;0.73;61.74;101143.53;5068642;28;20055;-77
2023/03/01 03:04:16;;;;;;;19.05;10.85;;;;;;;0.75;62.19;101133.47;5063478;28;20115;-77
2023/03/01 03:06:43;;;;;;;16.83;10.07;;;;;;;0.84;61.68;101130.78;5067996;28;20051;-77
2023/03/01 03:09:08;;;;;;;16.35;10.00;;;;;;;0.74;61.70;101130.94;5067160;28;20259;-77
2023/03/01 03:11:34;;;;;;;16.30;9.90;;;;;;;0.69;61.72;101134.13;5068528;28;20033;-77
2023/03/01 03:13:59;;;;;;;13.93;10.25;;;;;;;0.71;61.51;101136.66;5069800;28;20248;-77
2023/03/01 03:16:24;;;;;;;18.65;10.45;;;;;;;0.68;61.59;101132.44;5068596;28;20021;-77
2023/03/01 03:18:50;;;;;;;18.58;9.55;;;;;;;0.77;61.19;101131.44;5060592;28;20076;-77
2023/03/01 03:21:16;;;;;;;18.83;10.82;;;;;;;0.70;61.73;101130.44;5067251;28;20048;-77
2023/03/01 03:23:42;;;;;;;30.33;10.70;;;;;;;0.68;61.69;101132.44;5067099;28;20034;-77
2023/03/01 03:26:07;;;;;;;22.23;10.10;;;;;;;0.68;61.67;101133.28;5067947;28;20710;-77
2023/03/01 03:28:34;;;;;;;20.38;13.45;;;;;;;0.68;61.28;101127.06;5064234;28;20061;-78
2023/03/01 03:31:03;;;;;;;17.95;12.68;;;;;;;0.65;61.36;101128.22;5065872;28;20114;-77
2023/03/01 03:33:32;;;;;;;21.50;13.05;;;;;;;0.57;61.73;101123.69;5067039;28;20038;-77
2023/03/01 03:35:58;;;;;;;20.38;13.48;;;;;;;0.57;61.88;101126.38;5067139;28;20152;-77
2023/03/01 03:38:23;;;;;;;20.60;12.88;;;;;;;0.48;62.41;101122.00;5064258;28;20053;-76
2023/03/01 03:41:00;;;;;;;23.40;13.45;;;;;;;0.47;62.07;101131.03;5065209;28;20599;-77
2023/03/01 03:43:26;;;;;;;18.48;13.18;;;;;;;0.43;62.54;101114.44;5061967;28;20053;-77
2023/03/01 03:45:52;;;;;;;20.98;12.70;;;;;;;0.47;62.48;101123.00;5065312;28;20074;-77
2023/03/01 03:48:18;;;;;;;23.67;12.07;;;;;;;0.46;62.43;101118.66;5064860;28;20409;-77
2023/03/01 03:50:49;;;;;;;20.75;12.15;;;;;;;0.45;62.28;101108.91;5065391;28;20118;-77
2023/03/01 03:53:15;;;;;;;19.98;13.13;;;;;;;0.33;62.74;101108.38;5064740;28;20030;-77
2023/03/01 03:55:40;;;;;;;17.95;12.30;;;;;;;0.39;62.47;101102.34;5065469;28;20398;-77
2023/03/01 03:58:07;;;;;;;27.25;13.70;;;;;;;0.32;62.25;101093.28;5063104;28;20521;-77
2023/03/01 04:00:38;;;;;;;25.23;11.65;;;;;;;0.31;62.78;101088.91;5060609;28;20039;-77
2023/03/01 04:03:04;;;;;;;20.23;13.00;;;;;;;0.32;62.13;101091.44;5063738;28;20032;-77
2023/03/01 04:05:29;;;;;;;18.35;11.02;;;;;;;0.34;62.08;101094.81;5065937;28;20039;-77
2023/03/01 04:08:01;;;;;;;18.92;12.15;;;;;;;0.31;62.17;101087.06;5067149;28;20037;-77
2023/03/01 04:10:31;;;;;;;19.83;12.45;;;;;;;0.33;62.11;101076.16;5066396;28;20485;-77
2023/03/01 04:12:57;;;;;;;19.98;10.60;;;;;;;0.23;62.72;101092.41;5064544;28;20028;-77
2023/03/01 04:15:24;;;;;;;22.33;13.68;;;;;;;0.25;62.23;101101.13;5065943;28;20458;-77
2023/03/01 04:17:51;;;;;;;20.05;12.07;;;;;;;0.20;62.59;101093.56;5069142;28;20155;-77
2023/03/01 04:20:26;;;;;;;18.23;12.05;;;;;;;0.27;62.60;101099.13;5065147;28;20371;-77
2023/03/01 04:22:57;;;;;;;22.48;13.00;;;;;;;0.27;62.39;101107.19;5067061;28;20039;-77
2023/03/01 04:25:22;;;;;;;18.90;12.63;;;;;;;0.38;62.41;101106.06;5065811;28;20062;-77
2023/03/01 04:27:48;;;;;;;18.50;11.30;;;;;;;0.29;62.50;101105.19;5062243;28;20407;-77
2023/03/01 04:30:13;;;;;;;22.53;12.03;;;;;;;0.39;62.26;101104.19;5063981;28;20120;-78
2023/03/01 04:32:38;;;;;;;23.98;13.15;;;;;;;0.26;62.14;101105.53;5065573;28;20263;-77
2023/03/01 04:35:04;;;;;;;24.65;12.15;;;;;;;0.18;62.59;101094.75;5065161;28;20041;-77
2023/03/01 04:37:29;;;;;;;14.40;11.35;;;;;;;0.13;62.57;101097.91;5065233;28;20044;-76
2023/03/01 04:39:54;;;;;;;23.20;12.52;;;;;;;0.17;62.81;101099.28;5067943;28;20484;-77
2023/03/01 04:42:20;;;;;;;24.27;14.55;;;;;;;0.12;62.76;101101.63;5066794;28;20033;-77
2023/03/01 04:44:45;;;;;;;22.00;13.73;;;;;;;0.10;62.85;101096.38;5065136;28;20036;-77
2023/03/01 04:47:11;;;;;;;25.55;15.23;;;;;;;0.15;62.69;101100.44;5064900;28;20413;-76
2023/03/01 04:49:37;;;;;;;33.78;13.77;;;;;;;0.11;62.72;101094.56;5064792;28;20050;-76
2023/03/01 04:52:03;;;;;;;25.75;13.55;;;;;;;0.19;62.71;101096.41;5066551;28;20489;-76
2023/03/01 04:54:32;;;;;;;27.00;14.43;;;;;;;0.04;63.14;101094.34;5065826;28;20039;-77
2023/03/01 04:56:58;;;;;;;22.55;12.38;;;;;;;0.06;62.94;101091.53;5066411;28;20138;-77
2023/03/01 04:59:24;;;;;;;21.10;12.63;;;;;;;0.08;63.19;101090.34;5063517;28;20084;-77
2023/03/01 05:01:55;;;;;;;24.75;12.88;;;;;;;0.04;62.85;101082.81;5064968;28;20473;-77
2023/03/01 05:04:22;;;;;;;20.70;14.10;;;;;;;0.02;63.00;101091.00;5060455;28;20033;-78
2023/03/01 05:06:47;;;;;;;18.92;13.23;;;;;;;0.01;62.96;101083.97;5062276;28;20456;-77
2023/03/01 05:09:12;;;;;;;19.03;14.13;;;;;;;0.10;62.73;101088.34;5061515;28;20042;-77
2023/03/01 05:11:38;;;;;;;22.02;14.10;;;;;;;0.08;62.90;101087.66;5052254;28;20339;-77
2023/03/01 05:14:04;;;;;;;21.10;12.85;;;;;;;0.17;63.01;101077.81;5064725;28;20020;-77
2023/03/01 05:16:30;;;;;;;26.50;13.32;;;;;;;0.14;62.49;101082.66;5057246;28;20053;-78
2023/03/01 05:18:56;;;;;;;26.00;15.35;;;;;;;-0.01;63.16;101080.59;5058875;28;20047;-79
2023/03/01 05:21:21;;;;;;;28.23;14.40;;;;;;;-0.01;63.20;101085.97;5057943;28;20040;-77
2023/03/01 05:23:47;;;;;;;21.48;13.88;;;;;;;-0.02;63.68;101084.31;5064840;28;20110;-77
2023/03/01 05:26:13;;;;;;;23.52;12.48;;;;;;;-0.07;63.48;101082.09;5060386;28;20109;-77
2023/03/01 05:28:39;;;;;;;20.38;12.02;;;;;;;-0.09;63.49;101088.63;5052749;28;20406;-77
2023/03/01 05:31:09;;;;;;;19.30;12.05;;;;;;;-0.17;63.78;101073.34;5057392;28;20026;-76
2023/03/01 05:33:35;;;;;;;19.52;14.13;;;;;;;-0.27;64.25;101077.00;5060111;28;20062;-77
2023/03/01 05:36:01;;;;;;;20.70;12.80;;;;;;;-0.26;64.40;101075.13;5059199;28;20377;-78
2023/03/01 05:38:26;;;;;;;20.35;11.88;;;;;;;-0.34;64.11;101069.72;5064816;28;20034;-78
2023/03/01 05:40:51;;;;;;;19.42;14.25;;;;;;;-0.35;64.39;101076.94;5064147;28;20028;-77
2023/03/01 05:43:17;;;;;;;24.52;14.68;;;;;;;-0.24;64.42;101070.44;5065589;28;20038;-77
2023/03/01 05:45:43;;;;;;;22.15;13.60;;;;;;;-0.19;64.29;101076.19;5066872;28;20037;-78
2023/03/01 05:48:10;;;;;;;26.92;14.85;;;;;;;-0.13;63.88;101070.19;5065184;28;20037;-79
2023/03/01 05:50:37;;;;;;;18.55;11.95;;;;;;;-0.10;63.49;101070.84;5061566;28;20476;-78
2023/03/01 05:53:08;;;;;;;24.30;13.93;;;;;;;-0.10;63.56;101078.91;5062580;28;20031;-78
2023/03/01 05:55:35;;;;;;;21.85;14.18;;;;;;;-0.14;63.55;101076.53;5064184;28;20469;-79
2023/03/01 05:58:03;;;;;;;24.55;12.35;;;;;;;-0.17;63.64;101074.19;5056318;28;20052;-77
2023/03/01 06:00:30;;;;;;;21.10;14.30;;;;;;;-0.24;64.16;101075.81;5064480;28;20042;-79
2023/03/01 06:02:57;;;;;;;21.60;13.82;;;;;;;-0.17;64.53;101067.97;5063033;28;20422;-78
2023/03/01 06:05:23;;;;;;;22.73;14.68;;;;;;;-0.14;64.22;101068.47;5058278;28;20023;-79
2023/03/01 06:07:49;;;;;;;19.30;13.25;;;;;;;0.03;64.03;101071.22;5058887;28;20101;-79
2023/03/01 06:10:15;;;;;;;20.35;12.65;;;;;;;0.08;63.75;101068.88;5062584;28;20496;-78
2023/03/01 06:12:42;;;;;;;20.17;12.15;;;;;;;0.06;63.51;101076.25;5062481;28;20033;-79
2023/03/01 06:15:09;;;;;;;22.40;12.80;;;;;;;0.04;63.47;101072.91;5058883;28;20029;-79
2023/03/01 06:17:37;;;;;;;22.67;13.00;;;;;;;0.15;63.75;101078.97;5056288;28;20036;-78
2023/03/01 06:20:04;;;;;;;22.60;12.75;;;;;;;0.23;63.42;101070.94;5055616;28;20023;-79
2023/03/01 06:22:30;;;;;;;22.15;13.45;;;;;;;0.16;63.32;101072.63;5056141;27;20092;-77
2023/03/01 06:24:55;;;;;;;19.63;12.65;;;;;;;0.19;63.58;101072.28;5060343;28;20413;-78
2023/03/01 06:27:20;;;;;;;24.38;13.70;;;;;;;0.27;63.40;101066.94;5057233;28;20022;-78
2023/03/01 06:29:46;;;;;;;24.30;13.80;;;;;;;0.22;63.69;101066.59;5061096;28;20038;-78
2023/03/01 06:32:11;;;;;;;20.20;12.57;;;;;;;0.13;63.19;101068.41;5056225;28;20041;-77
2023/03/01 06:34:36;;;;;;;20.83;11.90;;;;;;;0.20;63.25;101061.38;5058501;28;20311;-77
2023/03/01 06:37:04;;;;;;;19.30;11.80;;;;;;;0.29;63.06;101056.03;5058300;28;20026;-77
2023/03/01 06:39:30;;;;;;;27.20;14.90;;;;;;;0.16;63.01;101060.06;5055139;28;20261;-77
2023/03/01 06:41:56;;;;;;;17.95;13.35;;;;;;;0.16;63.16;101064.56;5057377;28;20023;-76
2023/03/01 06:44:21;;;;;;;22.67;14.02;;;;;;;0.15;63.48;101063.72;5054749;28;20021;-77
2023/03/01 06:46:46;;;;;;;22.92;13.45;;;;;;;0.14;63.31;101072.78;5054823;28;20473;-77
2023/03/01 06:49:12;;;;;;;23.75;12.73;;;;;;;0.02;63.58;101064.19;5056931;28;20081;-77
2023/03/01 06:51:37;;;;;;;20.15;11.70;;;;;;;0.09;63.73;101070.59;5052865;28;20028;-77
2023/03/01 06:54:04;;;;;;;24.00;13.77;;;;;;;0.09;63.54;101062.53;5054355;28;20568;-79
2023/03/01 06:56:31;;;;;;;19.58;10.05;;;;;;;0.02;64.06;101060.69;5051560;28;20120;-77
2023/03/01 06:58:57;;;;;;;17.23;11.45;;;;;;;0.11;63.59;101057.84;5051327;28;20480;-78
2023/03/01 07:01:22;;;;;;;19.20;11.40;;;;;;;0.11;63.85;101057.84;5056194;28;20086;-76
2023/03/01 07:03:47;;;;;;;21.00;12.63;;;;;;;0.18;63.39;101062.56;5052730;28;20615;-79
2023/03/01 07:06:12;;;;;;;18.67;11.45;;;;;;;0.09;63.87;101054.50;5052955;28;20041;-80
2023/03/01 07:08:38;;;;;;;20.92;11.13;;;;;;;0.15;64.19;101054.81;5052955;28;20496;-84
2023/03/01 07:11:03;;;;;;;19.80;11.95;;;;;;;0.33;63.52;101047.50;5063923;28;20396;-77
2023/03/01 07:13:29;;;;;;;18.02;11.70;;;;;;;0.30;63.31;101049.69;5065071;28;20048;-77
2023/03/01 07:15:55;;;;;;;18.92;10.27;;;;;;;0.41;63.29;101051.19;5054954;28;20022;-77
2023/03/01 07:18:20;;;;;;;19.27;11.52;;;;;;;0.45;63.56;101041.81;5046618;28;20023;-77
2023/03/01 07:20:46;;;;;;;20.23;11.30;;;;;;;0.33;63.90;101052.88;5052248;28;20030;-77
2023/03/01 07:23:11;;;;;;;19.33;11.07;;;;;;;0.40;63.57;101054.88;5051509;28;20084;-77
2023/03/01 07:25:36;;;;;;;19.35;11.05;;;;;;;0.34;63.62;101041.16;5049887;28;20543;-78
2023/03/01 07:28:02;;;;;;;20.55;12.50;;;;;;;0.43;63.92;101047.34;5045726;28;20096;-78
2023/03/01 07:30:28;;;;;;;21.48;11.45;;;;;;;0.56;63.04;101038.81;5044501;28;20023;-78
2023/03/01 07:32:54;;;;;;;18.55;11.20;;;;;;;0.68;63.16;101035.78;5049588;28;20030;-76
2023/03/01 07:35:20;;;;;;;21.80;12.77;;;;;;;0.70;62.97;101025.72;5048342;28;20031;-78
2023/03/01 07:37:45;;;;;;;21.50;10.30;;;;;;;0.78;62.73;101025.72;5054771;28;20081;-78
2023/03/01 07:40:12;;;;;;;21.00;12.10;;;;;;;0.80;62.63;101031.75;5058365;28;20027;-78
2023/03/01 07:42:37;;;;;;;20.35;10.95;;;;;;;0.66;62.75;101022.53;5068894;28;20084;-78
2023/03/01 07:45:04;;;;;;;20.75;14.05;;;;;;;0.64;63.01;101031.75;5068612;28;20029;-77
2023/03/01 07:47:29;;;;;;;18.52;10.82;;;;;;;0.75;63.02;101025.22;5065207;28;20037;-78
2023/03/01 07:49:55;;;;;;;25.65;11.68;;;;;;;0.84;63.13;101031.41;5067791;28;20034;-77
2023/03/01 07:52:20;;;;;;;23.45;14.35;;;;;;;0.86;62.73;101032.09;5066843;28;20049;-79
2023/03/01 07:54:45;;;;;;;26.52;14.45;;;;;;;0.87;62.54;101039.16;5066839;28;20065;-78
2023/03/01 07:57:11;;;;;;;40.75;15.90;;;;;;;0.93;62.40;101038.47;5066003;28;20116;-78
2023/03/01 07:59:36;;;;;;;27.25;15.30;;;;;;;0.97;62.50;101042.50;5066256;28;20054;-78
2023/03/01 08:02:01;;;;;;;21.33;13.10;;;;;;;1.00;62.19;101034.09;5066863;28;20033;-78
2023/03/01 08:04:28;;;;;;;23.88;14.88;;;;;;;1.02;62.37;101040.13;5063805;28;20324;-78
2023/03/01 08:06:54;;;;;;;21.40;13.50;;;;;;;1.18;61.89;101038.41;5063357;28;20031;-78
2023/03/01 08:09:20;;;;;;;25.83;14.60;;;;;;;1.26;61.61;101038.41;5062256;28;20027;-78
2023/03/01 08:11:46;;;;;;;27.02;15.43;;;;;;;1.34;61.49;101036.72;5064873;28;20718;-78
2023/03/01 08:14:11;;;;;;;27.63;18.55;;;;;;;1.32;62.29;101039.59;5069896;28;20023;-78
2023/03/01 08:16:37;;;;;;;27.05;15.10;;;;;;;1.35;61.87;101036.56;5056594;28;20072;-78
2023/03/01 08:19:10;;;;;;;29.50;15.77;;;;;;;1.32;62.77;101030.69;5055599;28;20472;-77
2023/03/01 08:21:36;;;;;;;24.83;14.27;;;;;;;1.43;62.59;101043.75;5065462;28;20404;-77
2023/03/01 08:24:03;;;;;;;18.92;13.07;;;;;;;1.45;62.20;101036.34;5057787;28;20019;-77
2023/03/01 08:26:28;;;;;;;24.77;12.80;;;;;;;1.53;62.09;101037.34;5060422;28;20426;-78
2023/03/01 08:28:54;;;;;;;22.83;12.40;;;;;;;1.53;61.96;101037.34;5063567;28;20034;-78
2023/03/01 08:31:23;;;;;;;22.98;11.95;;;;;;;1.65;61.73;101033.25;5065414;28;20440;-77
2023/03/01 08:33:54;;;;;;;19.63;11.15;;;;;;;1.72;61.66;101031.56;5067914;28;20743;-78
2023/03/01 08:36:21;;;;;;;29.38;16.65;;;;;;;1.78;61.07;101034.56;5066813;28;20484;-78
2023/03/01 08:38:47;;;;;;;28.77;15.23;;;;;;;1.74;61.44;101029.53;5063457;28;20045;-78
2023/03/01 08:41:13;;;;;;;27.47;12.47;;;;;;;1.72;61.50;101028.88;5068871;28;20024;-78
2023/03/01 08:43:38;;;;;;;25.15;13.10;;;;;;;1.88;61.40;101026.25;5063389;28;20375;-77
2023/03/01 08:46:03;;;;;;;27.85;15.50;;;;;;;1.93;61.58;101022.03;5068376;28;20165;-77
2023/03/01 08:48:28;;;;;;;43.67;12.90;;;;;;;1.91;61.76;101017.88;5060882;28;20035;-78
2023/03/01 08:50:54;;;;;;;25.05;12.60;;;;;;;2.05;61.40;101008.19;5069259;28;20467;-78
2023/03/01 08:53:19;;;;;;;24.85;13.63;;;;;;;2.18;60.82;101008.44;5063686;28;20026;-77
2023/03/01 08:55:45;;;;;;;22.80;11.10;;;;;;;2.26;60.79;101002.16;5068732;28;20041;-80
2023/03/01 08:58:10;;;;;;;18.00;9.63;;;;;;;2.21;60.35;101013.47;5061821;28;20036;-78
2023/03/01 09:00:35;;;;;;;25.13;12.20;;;;;;;2.26;60.94;101006.72;5058429;28;20044;-78
2023/03/01 09:03:04;;;;;;;19.85;11.18;;;;;;;2.39;60.62;100998.03;5057229;28;20025;-77
2023/03/01 09:05:33;;;;;;;22.60;11.43;;;;;;;2.50;60.54;101007.56;5060587;28;20038;-77
2023/03/01 09:07:58;;;;;;;16.98;11.60;;;;;;;2.56;59.88;101009.53;5060507;28;20034;-77
2023/03/01 09:10:24;;;;;;;17.40;10.10;;;;;;;2.59;59.32;101001.09;5068629;28;20492;-78
2023/03/01 09:12:49;;;;;;;20.05;9.63;;;;;;;2.43;59.63;101007.44;5063581;28;20106;-78
2023/03/01 09:15:14;;;;;;;17.07;9.27;;;;;;;2.42;60.04;101009.28;5068767;28;20032;-78
2023/03/01 09:17:40;;;;;;;18.40;7.88;;;;;;;2.54;58.95;101007.00;5064775;28;20616;-78
2023/03/01 09:20:05;;;;;;;13.15;9.18;;;;;;;2.72;58.26;100996.94;5061891;27;20025;-78
2023/03/01 09:22:33;;;;;;;24.45;8.07;;;;;;;2.53;59.13;100999.09;5072118;28;20027;-77
2023/03/01 09:24:59;;;;;;;14.98;8.18;;;;;;;2.86;58.45;101004.22;5066724;28;20028;-78
2023/03/01 09:27:24;;;;;;;14.65;9.38;;;;;;;3.02;58.02;100991.59;5074808;28;20040;-78
2023/03/01 09:29:50;;;;;;;13.57;7.43;;;;;;;3.01;57.55;100973.78;5062005;28;20902;-77
2023/03/01 09:32:15;;;;;;;16.85;8.27;;;;;;;3.03;57.31;100983.34;5063682;28;20398;-77
2023/03/01 09:37:44;;;;;;;13.27;6.38;;;;;;;2.97;57.21;100972.47;5067981;28;20128;-77
2023/03/01 09:40:16;;;;;;;15.32;8.10;;;;;;;3.26;56.05;100978.88;5072617;28;20549;-77
2023/03/01 09:42:50;;;;;;;15.52;6.40;;;;;;;3.22;55.79;100978.41;5066338;28;20034;-78
2023/03/01 09:45:27;;;;;;;13.70;7.53;;;;;;;3.26;55.84;100976.19;5076291;28;20041;-77
2023/03/01 09:47:53;;;;;;;13.80;6.38;;;;;;;3.20;56.37;100975.06;5066479;28;20115;-77
2023/03/01 09:50:20;;;;;;;16.90;8.65;;;;;;;3.37;55.50;100972.19;5065770;28;20049;-77
2023/03/01 09:52:48;;;;;;;15.20;7.70;;;;;;;3.53;55.45;100971.16;5065145;28;20105;-78
2023/03/01 09:55:17;;;;;;;17.25;7.35;;;;;;;3.59;55.54;100970.41;5069557;28;20114;-77
2023/03/01 09:57:46;;;;;;;14.07;8.18;;;;;;;3.69;55.10;100972.81;5062359;28;20480;-78
2023/03/01 10:00:31;;;;;;;13.95;6.80;;;;;;;3.40;55.53;100968.28;5067711;28;20029;-78
2023/03/01 10:03:11;;;;;;;14.35;8.25;;;;;;;3.53;54.94;100971.16;5067101;28;20027;-77
2023/03/01 10:05:47;;;;;;;13.70;7.43;;;;;;;3.76;54.98;100959.41;5065808;28;20021;-77
2023/03/01 10:09:00;;;;;;;14.88;7.68;;;;;;;3.85;55.20;100969.03;5060877;28;20091;-77
2023/03/01 10:11:30;;;;;;;13.63;7.18;;;;;;;3.96;54.44;100953.38;5055642;28;20178;-77
2023/03/01 10:14:06;;;;;;;13.52;7.55;;;;;;;4.04;54.79;100950.56;5066842;28;20035;-78
2023/03/01 10:16:48;;;;;;;14.73;6.50;;;;;;;4.07;53.56;100960.97;5063861;28;20094;-77
2023/03/01 10:19:32;;;;;;;17.20;8.35;;;;;;;4.24;52.94;100955.31;5067500;28;20606;-77
2023/03/01 10:22:04;;;;;;;13.75;8.15;;;;;;;4.35;53.38;100953.13;5071835;28;20027;-77
2023/03/01 10:24:34;;;;;;;19.08;7.93;;;;;;;4.29;52.43;100969.06;5072173;28;20647;-78
2023/03/01 10:27:24;;;;;;;12.32;6.15;;;;;;;4.30;53.34;100953.72;5062499;28;20039;-78
2023/03/01 10:30:11;;;;;;;16.45;8.30;;;;;;;4.37;52.02;100951.06;5061706;28;20045;-78
2023/03/01 10:32:37;;;;;;;11.52;7.55;;;;;;;4.35;51.55;100950.44;5070936;28;20029;-77
2023/03/01 10:35:23;;;;;;;11.35;6.13;;;;;;;4.43;52.30;100931.41;5063778;28;20432;-78
2023/03/01 10:38:06;;;;;;;12.38;6.70;;;;;;;4.53;51.60;100937.31;5092140;27;20041;-78
2023/03/01 10:40:33;;;;;;;10.93;5.87;;;;;;;4.66;52.10;100935.72;5066055;28;20101;-77
2023/03/01 10:43:02;;;;;;;10.52;6.22;;;;;;;4.77;52.13;100935.19;5067430;28;20078;-78
2023/03/01 10:45:37;;;;;;;11.68;6.32;;;;;;;4.88;52.19;100922.16;5067552;28;20078;-79
2023/03/01 10:48:15;;;;;;;14.68;6.15;;;;;;;4.87;51.90;100915.06;5062220;28;20034;-78
2023/03/01 10:50:46;;;;;;;13.45;6.13;;;;;;;4.93;51.85;100918.84;5064941;28;20028;-78
2023/03/01 10:53:35;;;;;;;12.35;6.05;;;;;;;5.00;51.40;100915.16;5065396;28;20112;-79
2023/03/01 10:56:11;;;;;;;9.80;6.60;;;;;;;4.93;51.34;100898.06;5067609;28;20033;-78
2023/03/01 10:58:39;;;;;;;13.80;6.03;;;;;;;4.99;50.60;100897.28;5062566;28;20565;-79
2023/03/01 11:01:26;;;;;;;15.32;6.75;;;;;;;5.00;50.80;100893.53;5069092;28;20468;-79
2023/03/01 11:04:07;;;;;;;16.58;6.72;;;;;;;5.09;51.10;100904.16;5066423;28;20359;-78
2023/03/01 11:06:37;;;;;;;14.07;6.85;;;;;;;5.04;50.82;100898.53;5068992;28;20027;-78
2023/03/01 11:09:15;;;;;;;21.05;6.53;;;;;;;5.19;50.46;100901.94;5061232;28;20034;-78
2023/03/01 11:11:41;;;;;;;13.13;6.85;;;;;;;5.28;50.20;100899.91;5064426;28;20025;-78
2023/03/01 11:14:16;;;;;;;12.18;6.40;;;;;;;5.37;50.22;100901.41;5064975;28;20110;-78
2023/03/01 11:16:44;;;;;;;13.52;6.00;;;;;;;5.28;49.91;100899.91;5066943;28;20474;-78
2023/03/01 11:19:09;;;;;;;14.35;7.13;;;;;;;5.35;50.07;100891.84;5062466;28;20386;-78
2023/03/01 11:21:58;;;;;;;15.50;6.60;;;;;;;5.56;49.49;100890.84;5069454;28;20049;-79
2023/03/01 11:24:48;;;;;;;12.88;7.18;;;;;;;5.51;49.52;100887.09;5064631;27;20371;-78
2023/03/01 11:27:31;;;;;;;15.90;7.03;;;;;;;5.50;49.62;100878.13;5064394;28;20430;-79
2023/03/01 11:30:05;;;;;;;14.10;7.75;;;;;;;5.69;49.84;100871.13;5065387;28;20035;-78
2023/03/01 11:32:50;;;;;;;13.35;6.85;;;;;;;5.69;49.27;100864.88;5067158;28;20447;-77